createdAt,value
2023-04-15T00:02:00.703Z,96444.60
2023-04-15T00:04:29.336Z,96444.44
2023-04-15T00:06:57.468Z,96442.42
2023-04-15T00:09:25.356Z,96436.27
2023-04-15T00:11:52.984Z,96440.91
2023-04-15T00:14:20.728Z,96442.30
2023-04-15T00:16:48.179Z,96439.42
2023-04-15T00:19:15.504Z,96441.52
2023-04-15T00:21:43.750Z,96444.09
2023-04-15T00:24:11.042Z,96449.21
2023-04-15T00:26:38.425Z,96454.48
2023-04-15T00:29:06.935Z,96467.54
2023-04-15T00:31:34.180Z,96471.10
2023-04-15T00:34:01.437Z,96473.10
2023-04-15T00:36:29.309Z,96476.94
2023-04-15T00:38:56.562Z,96479.24
2023-04-15T00:41:24.471Z,96480.66
2023-04-15T00:43:52.870Z,96480.77
2023-04-15T00:46:21.882Z,96479.48
2023-04-15T00:48:49.663Z,96482.91
2023-04-15T00:51:17.317Z,96490.63
2023-04-15T00:53:44.624Z,96495.86
2023-04-15T00:56:11.935Z,96500.02
2023-04-15T00:58:39.717Z,96500.34
2023-04-15T01:04:07.101Z,96484.33
2023-04-15T01:06:34.502Z,96482.12
2023-04-15T01:09:02.213Z,96479.94
2023-04-15T01:11:30.755Z,96477.52
2023-04-15T01:13:59.317Z,96480.34
2023-04-15T01:16:28.205Z,96477.11
2023-04-15T01:18:56.807Z,96478.36
2023-04-15T01:21:24.342Z,96472.05
2023-04-15T01:23:53.811Z,96468.63
2023-04-15T01:26:23.084Z,96462.55
2023-04-15T01:28:51.083Z,96463.66
2023-04-15T01:31:18.532Z,96463.12
2023-04-15T01:33:47.943Z,96465.98
2023-04-15T01:36:15.411Z,96474.83
2023-04-15T01:38:42.724Z,96478.80
2023-04-15T01:41:11.121Z,96475.77
2023-04-15T01:43:38.276Z,96469.92
2023-04-15T01:46:06.552Z,96474.22
2023-04-15T01:48:34.573Z,96482.21
2023-04-15T01:51:01.711Z,96492.29
2023-04-15T01:53:28.888Z,96496.78
2023-04-15T01:55:56.796Z,96500.48
2023-04-15T01:58:24.064Z,96506.98
2023-04-15T02:00:51.365Z,96509.84
2023-04-15T02:03:20.219Z,96516.23
2023-04-15T02:05:47.699Z,96523.13
2023-04-15T02:08:14.969Z,96526.29
2023-04-15T02:10:42.314Z,96522.98
2023-04-15T02:13:10.080Z,96516.55
2023-04-15T02:15:37.679Z,96519.94
2023-04-15T02:18:06.153Z,96521.91
2023-04-15T02:20:33.369Z,96526.27
2023-04-15T02:23:00.608Z,96522.52
2023-04-15T02:25:28.812Z,96517.88
2023-04-15T02:27:58.351Z,96520.02
2023-04-15T02:30:26.353Z,96515.79
2023-04-15T02:32:53.959Z,96513.90
2023-04-15T02:35:21.341Z,96512.41
2023-04-15T02:37:48.617Z,96511.71
2023-04-15T02:40:16.287Z,96515.84
2023-04-15T02:42:44.761Z,96522.02
2023-04-15T02:45:15.357Z,96528.23
2023-04-15T02:47:43.740Z,96533.45
2023-04-15T02:50:13.561Z,96536.50
2023-04-15T02:52:42.384Z,96544.76
2023-04-15T02:55:10.253Z,96546.94
2023-04-15T02:57:41.504Z,96550.24
2023-04-15T03:00:10.927Z,96547.05
2023-04-15T03:02:40.908Z,96552.28
2023-04-15T03:05:15.828Z,96554.45
2023-04-15T03:07:43.563Z,96564.44
2023-04-15T03:10:11.633Z,96563.59
2023-04-15T03:12:38.864Z,96564.55
2023-04-15T03:15:07.296Z,96556.85
2023-04-15T03:17:34.564Z,96555.48
2023-04-15T03:20:06.984Z,96552.85
2023-04-15T03:22:34.904Z,96547.44
2023-04-15T03:25:02.278Z,96553.33
2023-04-15T03:27:29.847Z,96556.75
2023-04-15T03:29:57.474Z,96562.34
2023-04-15T03:32:24.851Z,96565.19
2023-04-15T03:34:52.405Z,96568.57
2023-04-15T03:37:19.939Z,96575.41
2023-04-15T03:39:47.303Z,96578.77
2023-04-15T03:42:14.893Z,96583.98
2023-04-15T03:44:42.698Z,96579.29
2023-04-15T03:47:10.038Z,96580.81
2023-04-15T03:49:38.301Z,96585.48
2023-04-15T03:52:06.073Z,96589.64
2023-04-15T03:54:33.466Z,96588.99
2023-04-15T03:57:00.742Z,96595.48
2023-04-15T03:59:28.354Z,96597.45
2023-04-15T04:01:55.992Z,96592.23
2023-04-15T04:04:23.783Z,96594.24
2023-04-15T04:06:51.436Z,96588.93
2023-04-15T04:09:18.803Z,96591.72
2023-04-15T04:11:46.541Z,96597.81
2023-04-15T04:14:14.129Z,96602.88
2023-04-15T04:16:42.531Z,96608.58
2023-04-15T04:19:09.677Z,96604.58
2023-04-15T04:21:37.090Z,96607.15
2023-04-15T04:24:04.385Z,96611.54
2023-04-15T04:26:31.914Z,96609.28
2023-04-15T04:28:59.622Z,96620.30
2023-04-15T04:31:27.838Z,96625.73
2023-04-15T04:33:55.480Z,96625.06
2023-04-15T04:36:23.105Z,96632.17
2023-04-15T04:38:50.421Z,96639.86
2023-04-15T04:41:19.366Z,96643.28
2023-04-15T04:43:47.141Z,96648.09
2023-04-15T04:46:14.407Z,96645.50
2023-04-15T04:48:41.967Z,96643.90
2023-04-15T04:51:10.057Z,96644.83
2023-04-15T04:53:38.076Z,96644.34
2023-04-15T04:56:05.612Z,96642.20
2023-04-15T04:58:32.782Z,96645.65
2023-04-15T05:01:00.197Z,96642.92
2023-04-15T05:03:28.462Z,96642.45
2023-04-15T05:05:55.701Z,96642.48
2023-04-15T05:08:22.961Z,96644.42
2023-04-15T05:10:51.104Z,96651.80
2023-04-15T05:13:18.393Z,96649.77
2023-04-15T05:15:46.081Z,96641.95
2023-04-15T05:18:13.642Z,96644.96
2023-04-15T05:20:40.985Z,96643.74
2023-04-15T05:23:08.487Z,96649.91
2023-04-15T05:25:37.072Z,96651.20
2023-04-15T05:28:04.272Z,96654.31
2023-04-15T05:30:31.718Z,96656.35
2023-04-15T05:32:59.661Z,96655.27
2023-04-15T05:35:27.642Z,96657.47
2023-04-15T05:37:54.966Z,96657.80
2023-04-15T05:40:23.629Z,96660.23
2023-04-15T05:42:50.990Z,96663.36
2023-04-15T05:45:18.307Z,96663.66
2023-04-15T05:47:45.698Z,96659.42
2023-04-15T05:50:13.115Z,96659.65
2023-04-15T05:52:40.533Z,96656.73
2023-04-15T05:55:08.153Z,96659.40
2023-04-15T05:57:35.760Z,96660.45
2023-04-15T06:00:03.023Z,96664.77
2023-04-15T06:02:32.552Z,96669.13
2023-04-15T06:05:01.411Z,96666.68
2023-04-15T06:07:28.974Z,96668.11
2023-04-15T06:09:56.639Z,96667.85
2023-04-15T06:12:24.492Z,96668.16
2023-04-15T06:14:51.961Z,96667.63
2023-04-15T06:17:19.891Z,96669.29
2023-04-15T06:19:47.565Z,96670.96
2023-04-15T06:22:14.855Z,96675.52
2023-04-15T06:24:42.454Z,96680.84
2023-04-15T06:27:10.181Z,96680.57
2023-04-15T06:29:37.430Z,96676.28
2023-04-15T06:32:04.781Z,96683.71
2023-04-15T06:34:32.424Z,96680.98
2023-04-15T06:36:59.978Z,96687.11
2023-04-15T06:39:27.895Z,96694.47
2023-04-15T06:41:55.411Z,96695.98
2023-04-15T06:44:22.902Z,96697.57
2023-04-15T06:46:50.633Z,96696.65
2023-04-15T06:49:17.781Z,96705.70
2023-04-15T06:51:45.932Z,96708.34
2023-04-15T06:54:13.353Z,96709.36
2023-04-15T06:56:41.755Z,96714.13
2023-04-15T06:59:09.251Z,96719.77
2023-04-15T07:01:36.743Z,96720.09
2023-04-15T07:04:04.093Z,96718.28
2023-04-15T07:06:33.217Z,96718.15
2023-04-15T07:09:00.850Z,96723.14
2023-04-15T07:11:28.532Z,96721.92
2023-04-15T07:13:56.312Z,96720.66
2023-04-15T07:16:23.964Z,96723.02
2023-04-15T07:18:51.520Z,96722.67
2023-04-15T07:21:19.088Z,96728.17
2023-04-15T07:23:46.579Z,96734.70
2023-04-15T07:26:14.348Z,96732.98
2023-04-15T07:28:42.236Z,96735.02
2023-04-15T07:31:11.659Z,96737.81
2023-04-15T07:33:38.949Z,96736.36
2023-04-15T07:36:06.503Z,96736.91
2023-04-15T07:38:34.060Z,96739.02
2023-04-15T07:41:01.364Z,96737.60
2023-04-15T07:43:28.868Z,96737.85
2023-04-15T07:45:56.197Z,96738.17
2023-04-15T07:48:23.514Z,96740.45
2023-04-15T07:50:51.307Z,96742.30
2023-04-15T07:53:18.919Z,96738.55
2023-04-15T07:55:46.307Z,96737.87
2023-04-15T07:58:13.933Z,96742.25
2023-04-15T08:00:41.672Z,96744.96
2023-04-15T08:03:09.082Z,96743.10
2023-04-15T08:05:37.003Z,96744.27
2023-04-15T08:08:04.456Z,96746.84
2023-04-15T08:10:32.092Z,96745.77
2023-04-15T08:12:59.410Z,96752.64
2023-04-15T08:15:27.687Z,96752.27
2023-04-15T08:17:54.918Z,96755.30
2023-04-15T08:20:22.356Z,96755.42
2023-04-15T08:22:52.655Z,96758.99
2023-04-15T08:25:23.100Z,96751.84
2023-04-15T08:27:50.396Z,96751.22
2023-04-15T08:30:18.262Z,96754.98
2023-04-15T08:32:48.789Z,96754.48
2023-04-15T08:35:16.029Z,96754.25
2023-04-15T08:37:43.742Z,96757.60
2023-04-15T08:40:11.990Z,96765.44
2023-04-15T08:42:45.536Z,96764.48
2023-04-15T08:45:12.825Z,96767.48
2023-04-15T08:47:41.452Z,96773.05
2023-04-15T08:50:11.688Z,96772.38
2023-04-15T08:52:40.203Z,96771.17
2023-04-15T08:55:10.102Z,96768.60
2023-04-15T08:57:38.840Z,96771.05
2023-04-15T09:00:07.180Z,96772.66
2023-04-15T09:02:34.896Z,96773.30
2023-04-15T09:05:03.200Z,96772.67
2023-04-15T09:07:30.397Z,96774.66
2023-04-15T09:09:58.011Z,96770.27
2023-04-15T09:12:25.709Z,96769.80
2023-04-15T09:14:53.383Z,96770.61
2023-04-15T09:17:25.155Z,96768.11
2023-04-15T09:20:08.989Z,96766.35
2023-04-15T09:22:38.104Z,96765.41
2023-04-15T09:25:26.092Z,96767.58
2023-04-15T09:27:55.005Z,96763.10
2023-04-15T09:30:22.471Z,96761.16
2023-04-15T09:33:01.721Z,96761.52
2023-04-15T09:35:29.486Z,96758.35
2023-04-15T09:38:08.209Z,96757.33
2023-04-15T09:40:44.405Z,96758.84
2023-04-15T09:43:15.354Z,96757.41
2023-04-15T09:45:49.713Z,96757.27
2023-04-15T09:48:17.636Z,96760.27
2023-04-15T09:50:45.470Z,96761.77
2023-04-15T09:53:18.428Z,96759.44
2023-04-15T09:55:55.174Z,96764.05
2023-04-15T09:58:24.675Z,96761.55
2023-04-15T10:00:53.899Z,96766.94
2023-04-15T10:03:23.643Z,96766.17
2023-04-15T10:05:53.409Z,96773.66
2023-04-15T10:08:24.780Z,96778.91
2023-04-15T10:10:52.983Z,96778.84
2023-04-15T10:13:29.599Z,96776.16
2023-04-15T10:15:59.831Z,96777.04
2023-04-15T10:18:29.745Z,96778.69
2023-04-15T10:20:57.288Z,96778.30
2023-04-15T10:23:26.229Z,96777.14
2023-04-15T10:25:55.135Z,96776.56
2023-04-15T10:28:26.090Z,96774.52
2023-04-15T10:30:56.118Z,96773.04
2023-04-15T10:33:27.282Z,96772.87
2023-04-15T10:36:00.346Z,96769.77
2023-04-15T10:38:55.031Z,96770.60
2023-04-15T10:41:31.263Z,96766.04
2023-04-15T10:44:08.905Z,96767.59
2023-04-15T10:46:42.995Z,96771.56
2023-04-15T10:49:22.010Z,96770.02
2023-04-15T10:51:59.989Z,96764.58
2023-04-15T10:54:32.594Z,96762.46
2023-04-15T10:57:10.022Z,96763.64
2023-04-15T11:00:04.028Z,96763.02
2023-04-15T11:02:55.367Z,96755.70
2023-04-15T11:05:57.615Z,96757.41
2023-04-15T11:08:59.068Z,96759.02
2023-04-15T11:12:09.112Z,96757.90
2023-04-15T11:14:44.923Z,96756.79
2023-04-15T11:17:15.393Z,96757.40
2023-04-15T11:19:48.745Z,96754.21
2023-04-15T11:22:20.449Z,96755.68
2023-04-15T11:24:51.076Z,96756.87
2023-04-15T11:27:24.274Z,96755.44
2023-04-15T11:29:52.894Z,96753.45
2023-04-15T11:32:22.189Z,96755.46
2023-04-15T11:34:49.394Z,96756.06
2023-04-15T11:37:17.778Z,96754.13
2023-04-15T11:39:45.045Z,96756.40
2023-04-15T11:42:19.240Z,96746.59
2023-04-15T11:44:46.495Z,96744.90
2023-04-15T11:47:24.426Z,96745.60
2023-04-15T11:49:51.942Z,96745.38
2023-04-15T11:52:19.446Z,96748.04
2023-04-15T11:54:47.232Z,96749.96
2023-04-15T11:57:14.537Z,96753.77
2023-04-15T11:59:46.223Z,96751.21
2023-04-15T12:02:15.136Z,96751.86
2023-04-15T12:04:43.112Z,96748.91
2023-04-15T12:07:11.214Z,96747.53
2023-04-15T12:09:40.629Z,96745.61
2023-04-15T12:12:08.275Z,96752.44
2023-04-15T12:14:35.580Z,96754.66
2023-04-15T12:17:07.502Z,96757.80
2023-04-15T12:19:40.588Z,96761.52
2023-04-15T12:22:13.532Z,96768.02
2023-04-15T12:24:42.879Z,96763.92
2023-04-15T12:27:12.711Z,96762.85
2023-04-15T12:29:42.407Z,96767.88
2023-04-15T12:32:14.988Z,96772.05
2023-04-15T12:34:45.617Z,96768.19
2023-04-15T12:37:16.458Z,96770.07
2023-04-15T12:39:45.164Z,96769.39
2023-04-15T12:42:13.322Z,96769.91
2023-04-15T12:44:41.096Z,96773.58
2023-04-15T12:47:10.336Z,96779.92
2023-04-15T12:49:38.580Z,96783.18
2023-04-15T12:52:06.212Z,96788.00
2023-04-15T12:54:33.484Z,96782.44
2023-04-15T12:57:02.183Z,96787.09
2023-04-15T12:59:30.414Z,96788.60
2023-04-15T13:01:58.387Z,96789.20
2023-04-15T13:04:26.331Z,96790.20
2023-04-15T13:06:54.120Z,96789.27
2023-04-15T13:09:21.905Z,96791.55
2023-04-15T13:11:50.637Z,96796.41
2023-04-15T13:14:18.192Z,96802.88
2023-04-15T13:16:45.501Z,96808.01
2023-04-15T13:19:13.072Z,96810.96
2023-04-15T13:21:41.071Z,96817.15
2023-04-15T13:24:08.891Z,96815.64
2023-04-15T13:26:37.151Z,96817.45
2023-04-15T13:29:04.550Z,96822.73
2023-04-15T13:31:31.823Z,96825.39
2023-04-15T13:33:59.151Z,96834.11
2023-04-15T13:36:27.322Z,96838.41
2023-04-15T13:38:55.051Z,96843.52
2023-04-15T13:41:22.757Z,96841.90
2023-04-15T13:43:50.011Z,96846.34
2023-04-15T13:46:17.614Z,96859.88
2023-04-15T13:48:45.116Z,96856.66
2023-04-15T13:51:12.801Z,96852.59
2023-04-15T13:53:40.061Z,96859.85
2023-04-15T13:56:09.259Z,96853.61
2023-04-15T13:58:38.098Z,96842.05
2023-04-15T14:01:07.483Z,96845.61
2023-04-15T14:03:38.798Z,96843.93
2023-04-15T14:06:06.991Z,96839.61
2023-04-15T14:08:34.678Z,96834.28
2023-04-15T14:11:02.357Z,96828.16
2023-04-15T14:13:29.693Z,96822.17
2023-04-15T14:15:58.078Z,96818.06
2023-04-15T14:18:25.849Z,96821.61
2023-04-15T14:20:53.256Z,96824.95
2023-04-15T14:23:20.715Z,96832.80
2023-04-15T14:25:50.296Z,96825.80
2023-04-15T14:28:17.488Z,96823.64
2023-04-15T14:30:44.918Z,96827.21
2023-04-15T14:33:13.021Z,96828.05
2023-04-15T14:35:40.291Z,96827.01
2023-04-15T14:38:11.457Z,96833.63
2023-04-15T14:40:39.761Z,96829.52
2023-04-15T14:43:07.083Z,96829.13
2023-04-15T14:45:35.918Z,96826.38
2023-04-15T14:48:04.056Z,96827.48
2023-04-15T14:50:31.899Z,96825.69
2023-04-15T14:52:59.780Z,96824.54
2023-04-15T14:55:27.577Z,96824.66
2023-04-15T14:57:54.757Z,96827.27
2023-04-15T15:00:22.864Z,96828.51
2023-04-15T15:02:50.653Z,96834.35
2023-04-15T15:05:18.207Z,96834.30
2023-04-15T15:07:46.456Z,96839.50
2023-04-15T15:10:13.959Z,96838.63
2023-04-15T15:12:41.291Z,96846.55
2023-04-15T15:15:24.977Z,96843.64
2023-04-15T15:17:56.689Z,96845.67
2023-04-15T15:20:25.063Z,96846.77
2023-04-15T15:22:52.747Z,96842.75
2023-04-15T15:25:20.594Z,96846.36
2023-04-15T15:27:49.146Z,96848.58
2023-04-15T15:30:16.570Z,96845.86
2023-04-15T15:32:44.832Z,96854.58
2023-04-15T15:35:12.471Z,96849.67
2023-04-15T15:37:40.015Z,96854.73
2023-04-15T15:40:08.599Z,96851.59
2023-04-15T15:42:36.661Z,96858.63
2023-04-15T15:45:05.343Z,96861.55
2023-04-15T15:47:33.133Z,96861.80
2023-04-15T15:50:04.249Z,96868.36
2023-04-15T15:52:33.173Z,96867.93
2023-04-15T15:55:00.974Z,96868.77
2023-04-15T15:57:28.455Z,96871.64
2023-04-15T16:00:10.273Z,96871.63
2023-04-15T16:03:05.266Z,96875.34
2023-04-15T16:05:27.044Z,96875.59
2023-04-15T16:07:54.338Z,96874.77
2023-04-15T16:10:21.666Z,96871.29
2023-04-15T16:12:48.881Z,96870.76
2023-04-15T16:15:16.828Z,96870.08
2023-04-15T16:17:44.285Z,96870.90
2023-04-15T16:20:11.656Z,96868.59
2023-04-15T16:22:40.078Z,96868.52
2023-04-15T16:25:08.141Z,96871.94
2023-04-15T16:27:54.100Z,96874.19
2023-04-15T16:30:24.745Z,96876.81
2023-04-15T16:32:52.373Z,96879.29
2023-04-15T16:35:20.448Z,96886.46
2023-04-15T16:37:48.723Z,96883.31
2023-04-15T16:40:16.500Z,96883.33
2023-04-15T16:42:47.164Z,96886.30
2023-04-15T16:45:14.883Z,96886.02
2023-04-15T16:47:42.717Z,96889.92
2023-04-15T16:50:11.423Z,96894.05
2023-04-15T16:52:39.053Z,96895.29
2023-04-15T16:55:07.147Z,96895.58
2023-04-15T16:57:48.783Z,96901.23
2023-04-15T17:00:23.632Z,96905.17
2023-04-15T17:02:53.082Z,96911.48
2023-04-15T17:05:21.178Z,96915.95
2023-04-15T17:07:49.014Z,96923.80
2023-04-15T17:10:16.970Z,96929.99
2023-04-15T17:12:44.257Z,96937.06
2023-04-15T17:15:12.381Z,96946.19
2023-04-15T17:17:39.724Z,96961.70
2023-04-15T17:20:07.790Z,96959.89
2023-04-15T17:22:36.007Z,96961.59
2023-04-15T17:25:05.164Z,96967.45
2023-04-15T17:27:33.437Z,96968.05
2023-04-15T17:30:01.856Z,96973.25
2023-04-15T17:32:32.444Z,96975.38
2023-04-15T17:34:59.913Z,96982.88
2023-04-15T17:37:27.396Z,96988.11
2023-04-15T17:39:55.393Z,96983.83
2023-04-15T17:42:23.435Z,96987.43
2023-04-15T17:44:53.654Z,96987.14
2023-04-15T17:47:22.636Z,96997.38
2023-04-15T17:49:50.021Z,97010.67
2023-04-15T17:52:18.618Z,97017.08
2023-04-15T17:54:47.182Z,97018.48
2023-04-15T17:57:15.256Z,97022.98
2023-04-15T17:59:50.632Z,97029.62
2023-04-15T18:02:18.523Z,97033.83
2023-04-15T18:04:47.075Z,97038.57
2023-04-15T18:07:15.863Z,97041.30
2023-04-15T18:09:45.014Z,97049.05
2023-04-15T18:12:13.236Z,97054.20
2023-04-15T18:14:41.650Z,97059.36
2023-04-15T18:17:10.893Z,97063.55
2023-04-15T18:19:38.597Z,97067.02
2023-04-15T18:22:07.103Z,97070.59
2023-04-15T18:24:34.648Z,97076.13
2023-04-15T18:27:03.374Z,97076.80
2023-04-15T18:29:32.514Z,97081.55
2023-04-15T18:32:02.428Z,97084.17
2023-04-15T18:34:31.277Z,97092.67
2023-04-15T18:37:00.222Z,97097.42
2023-04-15T18:39:28.786Z,97101.00
2023-04-15T18:41:58.335Z,97098.91
2023-04-15T18:44:29.475Z,97102.36
2023-04-15T18:46:58.158Z,97100.54
2023-04-15T18:49:28.475Z,97100.59
2023-04-15T18:51:56.625Z,97096.41
2023-04-15T18:54:25.433Z,97103.75
2023-04-15T18:56:54.103Z,97107.17
2023-04-15T18:59:29.783Z,97108.35
2023-04-15T19:02:02.094Z,97116.25
2023-04-15T19:04:30.261Z,97119.23
2023-04-15T19:06:59.768Z,97125.31
2023-04-15T19:09:29.462Z,97132.84
2023-04-15T19:11:58.625Z,97129.93
2023-04-15T19:14:26.814Z,97132.02
2023-04-15T19:16:58.413Z,97130.79
2023-04-15T19:19:26.457Z,97132.25
2023-04-15T19:21:54.718Z,97131.50
2023-04-15T19:24:24.407Z,97133.88
2023-04-15T19:26:54.026Z,97136.94
2023-04-15T19:29:23.956Z,97134.91
2023-04-15T19:31:52.723Z,97134.35
2023-04-15T19:34:20.695Z,97136.71
2023-04-15T19:36:54.054Z,97139.77
2023-04-15T19:39:22.080Z,97137.71
2023-04-15T19:41:51.334Z,97137.47
2023-04-15T19:44:19.772Z,97139.45
2023-04-15T19:46:51.210Z,97139.21
2023-04-15T19:49:21.243Z,97141.63
2023-04-15T19:51:53.577Z,97141.73
2023-04-15T19:54:22.390Z,97146.02
2023-04-15T19:56:50.392Z,97152.86
2023-04-15T19:59:18.753Z,97150.40
2023-04-15T20:01:47.366Z,97148.64
2023-04-15T20:04:15.515Z,97151.48
2023-04-15T20:06:43.657Z,97159.17
2023-04-15T20:09:12.519Z,97165.48
2023-04-15T20:12:45.939Z,97163.18
2023-04-15T20:14:35.355Z,97161.17
2023-04-15T20:17:03.914Z,97161.30
2023-04-15T20:19:32.175Z,97161.09
2023-04-15T20:22:00.319Z,97161.96
2023-04-15T20:24:28.380Z,97159.66
2023-04-15T20:26:58.453Z,97160.14
2023-04-15T20:29:27.832Z,97153.21
2023-04-15T20:31:56.257Z,97152.84
2023-04-15T20:34:24.427Z,97152.52
2023-04-15T20:36:52.219Z,97146.89
2023-04-15T20:39:20.342Z,97146.61
2023-04-15T20:41:48.353Z,97151.47
2023-04-15T20:44:17.335Z,97147.72
2023-04-15T20:46:48.040Z,97145.40
2023-04-15T20:49:16.128Z,97144.38
2023-04-15T20:51:44.457Z,97146.00
2023-04-15T20:54:13.253Z,97144.48
2023-04-15T20:56:41.157Z,97147.36
2023-04-15T20:59:09.389Z,97151.64
2023-04-15T21:01:36.776Z,97150.91
2023-04-15T21:04:04.689Z,97154.83
2023-04-15T21:06:33.720Z,97155.88
2023-04-15T21:09:01.196Z,97163.73
2023-04-15T21:11:49.529Z,97161.14
2023-04-15T21:14:17.000Z,97163.73
2023-04-15T21:16:44.726Z,97171.54
2023-04-15T21:19:12.213Z,97176.79
2023-04-15T21:21:40.265Z,97180.48
2023-04-15T21:24:11.107Z,97192.36
2023-04-15T21:26:38.391Z,97190.52
2023-04-15T21:29:08.748Z,97194.34
2023-04-15T21:31:38.159Z,97196.23
2023-04-15T21:34:07.215Z,97205.88
2023-04-15T21:36:34.718Z,97212.37
2023-04-15T21:39:02.104Z,97219.91
2023-04-15T21:41:29.850Z,97229.11
2023-04-15T21:43:57.133Z,97234.10
2023-04-15T21:46:25.754Z,97240.16
2023-04-15T21:49:00.641Z,97242.85
2023-04-15T21:51:28.161Z,97241.27
2023-04-15T21:53:55.445Z,97243.52
2023-04-15T21:56:24.744Z,97242.10
2023-04-15T21:58:57.321Z,97248.95
2023-04-15T22:01:25.497Z,97255.19
2023-04-15T22:03:54.235Z,97262.00
2023-04-15T22:06:21.733Z,97261.10
2023-04-15T22:08:57.001Z,97265.38
2023-04-15T22:11:28.358Z,97264.08
2023-04-15T22:13:57.629Z,97262.75
2023-04-15T22:16:28.612Z,97263.38
2023-04-15T22:18:57.518Z,97267.75
2023-04-15T22:21:24.785Z,97275.06
2023-04-15T22:23:52.521Z,97277.95
2023-04-15T22:26:20.182Z,97284.45
2023-04-15T22:28:47.508Z,97282.85
2023-04-15T22:31:15.392Z,97285.06
2023-04-15T22:33:43.194Z,97286.20
2023-04-15T22:36:10.829Z,97288.12
2023-04-15T22:38:38.235Z,97296.30
2023-04-15T22:41:06.255Z,97299.77
2023-04-15T22:43:33.507Z,97303.90
2023-04-15T22:46:01.652Z,97299.80
2023-04-15T22:48:29.533Z,97298.70
2023-04-15T22:50:56.676Z,97304.34
2023-04-15T22:53:23.970Z,97306.17
2023-04-15T22:55:51.522Z,97308.02
2023-04-15T22:58:18.835Z,97308.72
2023-04-15T23:00:46.306Z,97313.54
2023-04-15T23:03:13.966Z,97315.56
2023-04-15T23:05:42.198Z,97317.47
2023-04-15T23:08:09.552Z,97318.95
2023-04-15T23:10:38.889Z,97318.30
2023-04-15T23:13:06.543Z,97315.89
2023-04-15T23:15:33.792Z,97309.56
2023-04-15T23:18:03.043Z,97308.30
2023-04-15T23:20:31.010Z,97308.05
2023-04-15T23:22:58.206Z,97309.02
2023-04-15T23:25:25.940Z,97312.35
2023-04-15T23:27:53.475Z,97313.91
2023-04-15T23:30:20.822Z,97312.75
2023-04-15T23:32:48.641Z,97313.99
2023-04-15T23:35:17.074Z,97321.23
2023-04-15T23:37:44.404Z,97321.52
2023-04-15T23:40:12.651Z,97320.05
2023-04-15T23:42:40.216Z,97322.27
2023-04-15T23:45:08.086Z,97326.70
2023-04-15T23:47:35.440Z,97328.30
2023-04-15T23:50:02.993Z,97326.36
2023-04-15T23:52:30.366Z,97331.02
2023-04-15T23:54:57.634Z,97329.94
2023-04-15T23:57:24.964Z,97329.41
2023-04-15T23:59:53.341Z,97329.93
